Kaolack, Senegal
Current Conditions -  °F | °C
As of 11:00 PM on Friday 31 Oct 2014 (Local Time) from GOOK Reporting Station
Clear Clear  
Wind Chill: 82°   Ceiling: Unl
Heat Index: 86°   Visibility: 5mi
Dew Point: 70°   Wind: 9mph
Humidity: 66%   Direction: 340°NNW
Pressure: 29.94"   Gusts: NA
Location:  14.15°N, 16.1°W
Report Text: GOOK 312300Z 34008KT 8000 NSC 28/21 Q1014
Loading
Personal Weather Stations






























Interactive Weather Map
Tropical Storm Tracking
New forecast layout! Learn more

10-Day Weather Forecast

Advertisements
Track Severe Weather on mobile